Time;durP1;ratioP1;P1;durP2;ratioP2;P2;SDS_P1;SDS_P2;PMS_P1;PMS_P2;Temp;Humidity;BMP_temperature;BMP_pressure;BME280_temperature;BME280_humidity;BME280_pressure;Samples;Min_cycle;Max_cycle;Signal;HPM_P1;HPM_P2
2021/06/10 00:02:19;;;;;;;3.87;3.40;;;;;;;17.06;71.68;101391.22;5015999;28;20323;-70
2021/06/10 00:04:44;;;;;;;3.23;2.90;;;;;;;17.08;68.74;101387.44;4998418;28;20183;-69
2021/06/10 00:07:10;;;;;;;3.50;2.90;;;;;;;17.01;69.86;101388.84;4998162;28;20201;-70
2021/06/10 00:09:35;;;;;;;3.70;3.00;;;;;;;16.91;70.50;101389.63;5015680;28;20181;-70
2021/06/10 00:12:01;;;;;;;3.77;3.10;;;;;;;16.91;69.96;101386.94;4998319;28;20200;-70
2021/06/10 00:14:26;;;;;;;3.67;3.30;;;;;;;16.93;69.53;101391.25;4998052;28;20177;-70
2021/06/10 00:16:52;;;;;;;4.17;2.77;;;;;;;16.84;70.77;101381.13;4998497;28;20227;-71
2021/06/10 00:19:17;;;;;;;3.83;2.80;;;;;;;16.84;70.70;101383.81;4981601;28;20219;-71
2021/06/10 00:21:42;;;;;;;4.27;3.30;;;;;;;16.83;71.38;101385.66;4997882;28;20646;-70
2021/06/10 00:24:08;;;;;;;4.10;3.20;;;;;;;16.78;71.78;101381.56;5015318;28;20272;-71
2021/06/10 00:26:34;;;;;;;3.83;3.27;;;;;;;16.73;71.53;101375.63;4998531;28;20181;-71
2021/06/10 00:28:59;;;;;;;3.13;2.80;;;;;;;16.70;71.00;101373.97;5015199;28;20250;-71
2021/06/10 00:31:24;;;;;;;3.43;3.00;;;;;;;16.67;70.60;101378.72;4997974;28;20192;-71
2021/06/10 00:33:49;;;;;;;3.50;2.80;;;;;;;16.65;70.08;101377.94;4997400;28;20276;-71
2021/06/10 00:36:15;;;;;;;4.60;3.47;;;;;;;16.67;71.28;101381.41;5015163;28;20177;-71
2021/06/10 00:38:40;;;;;;;5.73;3.67;;;;;;;16.68;73.35;101386.69;4997702;28;20185;-71
2021/06/10 00:41:06;;;;;;;5.60;4.10;;;;;;;16.63;73.81;101386.13;4997595;28;20188;-70
2021/06/10 00:43:31;;;;;;;5.33;3.60;;;;;;;16.64;71.66;101392.38;4997551;28;20228;-71
2021/06/10 00:45:56;;;;;;;4.30;3.37;;;;;;;16.60;70.76;101383.66;5014962;28;20211;-71
2021/06/10 00:48:22;;;;;;;3.90;3.50;;;;;;;16.60;70.79;101382.78;4997310;28;20193;-71
2021/06/10 00:50:48;;;;;;;4.97;3.73;;;;;;;16.62;69.98;101381.72;5014850;28;20235;-71
2021/06/10 00:53:21;;;;;;;4.43;2.97;;;;;;;16.61;69.67;101390.75;5014454;28;20362;-71
2021/06/10 00:55:48;;;;;;;3.63;3.03;;;;;;;16.70;69.44;101381.19;5015005;28;20288;-71
2021/06/10 00:58:13;;;;;;;3.40;3.10;;;;;;;16.76;69.05;101383.50;4997236;28;20169;-71
2021/06/10 01:00:39;;;;;;;6.40;3.63;;;;;;;16.81;69.58;101381.34;4997534;28;20190;-71
2021/06/10 01:03:04;;;;;;;3.43;3.13;;;;;;;16.87;69.08;101381.75;4997141;28;20200;-71
2021/06/10 01:05:29;;;;;;;3.43;3.13;;;;;;;16.85;69.16;101381.00;4980769;28;20549;-70
2021/06/10 01:08:01;;;;;;;4.20;3.13;;;;;;;16.88;68.89;101379.94;4996894;28;20552;-71
2021/06/10 01:10:34;;;;;;;4.00;2.83;;;;;;;16.90;69.51;101386.06;5015007;28;20549;-69
2021/06/10 01:13:24;;;;;;;3.83;3.43;;;;;;;16.82;70.20;101372.28;5014442;28;20212;-70
2021/06/10 01:15:52;;;;;;;4.90;3.60;;;;;;;16.73;71.22;101386.41;4996951;28;20284;-69
2021/06/10 01:18:18;;;;;;;5.87;3.80;;;;;;;16.66;72.62;101385.94;4996895;28;20177;-69
2021/06/10 01:20:44;;;;;;;4.07;3.50;;;;;;;16.57;75.00;101373.94;5014668;28;20549;-70
2021/06/10 01:23:20;;;;;;;3.93;3.27;;;;;;;16.51;75.16;101378.91;4996616;28;20573;-69
2021/06/10 01:26:07;;;;;;;4.50;3.63;;;;;;;16.48;75.81;101373.72;4996851;28;20172;-69
2021/06/10 01:28:35;;;;;;;6.00;3.40;;;;;;;16.41;76.22;101369.75;5014099;28;20243;-70
2021/06/10 01:31:05;;;;;;;4.90;4.23;;;;;;;16.28;77.02;101367.00;4996657;28;20181;-70
2021/06/10 01:33:35;;;;;;;4.17;3.67;;;;;;;16.19;77.98;101365.81;4996599;28;20204;-70
2021/06/10 01:36:04;;;;;;;4.80;3.93;;;;;;;16.13;77.50;101363.53;4996555;28;20256;-71
2021/06/10 01:38:30;;;;;;;7.37;4.17;;;;;;;16.12;78.15;101360.94;4980830;28;20209;-70
2021/06/10 01:40:56;;;;;;;6.63;3.87;;;;;;;16.12;78.12;101360.94;5014266;28;20605;-70
2021/06/10 01:43:24;;;;;;;4.87;3.90;;;;;;;16.11;78.67;101360.09;4996578;28;20228;-70
2021/06/10 01:45:49;;;;;;;3.90;3.57;;;;;;;16.07;80.41;101358.56;4997139;28;20692;-70
2021/06/10 01:48:17;;;;;;;5.33;4.07;;;;;;;16.09;80.85;101358.47;4980985;28;20220;-70
2021/06/10 01:50:44;;;;;;;5.47;4.10;;;;;;;16.09;81.53;101353.06;4998345;28;20207;-70
2021/06/10 01:53:14;;;;;;;5.30;4.33;;;;;;;16.14;82.36;101353.63;5018904;23;20236;-73
2021/06/10 01:55:40;;;;;;;7.87;4.10;;;;;;;16.05;82.67;101346.19;4996797;28;20598;-73
2021/06/10 01:58:06;;;;;;;5.80;4.57;;;;;;;16.05;83.75;101347.03;4996116;28;20207;-73
2021/06/10 02:00:31;;;;;;;5.57;4.33;;;;;;;16.05;83.38;101340.78;4979856;28;20176;-73
2021/06/10 02:02:59;;;;;;;5.10;4.00;;;;;;;16.04;83.54;101344.44;4979868;28;20677;-74
2021/06/10 02:05:24;;;;;;;6.83;4.10;;;;;;;16.00;83.07;101342.94;4996081;28;20181;-74
2021/06/10 02:07:50;;;;;;;4.80;3.87;;;;;;;15.92;82.80;101341.59;4979722;28;20684;-74
2021/06/10 02:10:20;;;;;;;4.83;4.10;;;;;;;15.89;82.88;101341.81;4996168;28;20177;-74
2021/06/10 02:12:46;;;;;;;6.10;4.37;;;;;;;15.78;82.94;101341.66;4995915;28;20734;-73
2021/06/10 02:15:13;;;;;;;4.93;4.50;;;;;;;15.70;83.20;101335.06;4979883;28;20184;-74
2021/06/10 02:17:39;;;;;;;8.50;4.30;;;;;;;15.65;83.53;101348.84;4979355;28;20177;-74
2021/06/10 02:20:06;;;;;;;7.30;4.03;;;;;;;15.48;80.86;101343.66;4996351;28;20212;-73
2021/06/10 02:22:33;;;;;;;4.53;4.00;;;;;;;15.20;80.32;101353.50;4996142;28;20274;-73
2021/06/10 02:24:59;;;;;;;9.10;4.40;;;;;;;14.90;81.26;101352.78;4996057;28;20196;-74
2021/06/10 02:27:24;;;;;;;5.60;5.10;;;;;;;14.89;82.20;101351.03;4979465;28;20201;-74
2021/06/10 02:29:50;;;;;;;4.93;4.43;;;;;;;14.92;81.91;101351.72;5013401;28;20239;-73
2021/06/10 02:32:15;;;;;;;5.50;4.90;;;;;;;14.93;83.05;101342.69;5013939;28;20251;-74
2021/06/10 02:34:40;;;;;;;6.30;5.17;;;;;;;15.02;85.66;101346.63;4996116;28;20211;-73
2021/06/10 02:37:06;;;;;;;5.73;4.90;;;;;;;15.10;86.14;101355.03;4996068;28;20172;-73
2021/06/10 02:39:39;;;;;;;5.20;4.70;;;;;;;15.11;84.63;101337.09;4995658;28;20183;-73
2021/06/10 02:42:05;;;;;;;6.07;4.90;;;;;;;15.07;83.75;101344.50;4995757;28;20216;-74
2021/06/10 02:44:30;;;;;;;7.47;4.83;;;;;;;15.07;84.70;101347.19;4979387;28;20173;-74
2021/06/10 02:46:56;;;;;;;5.03;4.43;;;;;;;15.11;85.64;101337.94;4995448;28;20572;-74
2021/06/10 02:49:23;;;;;;;5.77;4.60;;;;;;;15.17;86.03;101340.25;4995782;28;20173;-74
2021/06/10 02:51:49;;;;;;;4.77;4.37;;;;;;;15.26;86.89;101342.38;4995487;28;20205;-74
2021/06/10 02:54:17;;;;;;;8.53;4.77;;;;;;;15.35;86.31;101343.59;4995549;28;20258;-74
2021/06/10 02:56:42;;;;;;;6.27;4.97;;;;;;;15.25;83.91;101348.72;4979458;28;20612;-74
2021/06/10 02:59:09;;;;;;;7.57;5.00;;;;;;;15.13;82.02;101348.59;4995862;28;20176;-73
2021/06/10 03:01:40;;;;;;;4.67;4.03;;;;;;;14.87;82.02;101352.97;4979213;28;20181;-75
2021/06/10 03:04:06;;;;;;;6.90;4.43;;;;;;;14.69;83.04;101349.56;4979118;28;20232;-74
2021/06/10 03:06:31;;;;;;;5.53;4.50;;;;;;;14.60;83.40;101344.78;4995448;28;20255;-74
2021/06/10 03:08:57;;;;;;;5.00;4.43;;;;;;;14.57;83.55;101337.78;4995314;28;20189;-74
2021/06/10 03:11:23;;;;;;;7.57;4.60;;;;;;;14.61;83.48;101346.50;4995439;28;20169;-73
2021/06/10 03:13:48;;;;;;;5.13;4.60;;;;;;;14.69;83.24;101334.31;4978988;28;20204;-74
2021/06/10 03:16:14;;;;;;;5.17;4.63;;;;;;;14.80;82.23;101340.84;4995289;28;20264;-74
2021/06/10 03:18:40;;;;;;;5.80;4.67;;;;;;;14.81;82.38;101343.44;4979169;28;20561;-75
2021/06/10 03:21:06;;;;;;;11.80;4.23;;;;;;;14.75;82.32;101343.81;4995231;28;20223;-74
2021/06/10 03:23:32;;;;;;;4.80;4.20;;;;;;;14.68;82.22;101340.66;4978910;28;20189;-74
2021/06/10 03:25:59;;;;;;;12.07;4.20;;;;;;;14.68;81.45;101340.66;4995292;28;20363;-73
2021/06/10 03:28:25;;;;;;;4.30;3.90;;;;;;;14.65;81.64;101348.91;4996145;28;20189;-73
2021/06/10 03:30:50;;;;;;;5.20;4.20;;;;;;;14.53;82.02;101332.69;4982718;28;20176;-74
2021/06/10 03:33:15;;;;;;;11.60;4.87;;;;;;;14.56;81.85;101337.88;4982587;28;20204;-73
2021/06/10 03:35:42;;;;;;;7.50;3.57;;;;;;;14.61;80.86;101342.00;4999118;28;20283;-74
2021/06/10 03:38:08;;;;;;;6.23;3.83;;;;;;;14.70;80.69;101336.06;4982658;28;20275;-75
2021/06/10 03:40:34;;;;;;;5.57;3.90;;;;;;;14.77;80.48;101332.97;4982749;28;20284;-74
2021/06/10 03:43:00;;;;;;;6.50;4.00;;;;;;;14.82;79.95;101329.03;4999113;28;20199;-74
2021/06/10 03:45:26;;;;;;;6.33;3.80;;;;;;;14.88;79.93;101331.38;4982627;28;20204;-74
2021/06/10 03:47:52;;;;;;;4.30;3.90;;;;;;;14.92;80.10;101332.03;5016210;28;20199;-74
2021/06/10 03:50:17;;;;;;;5.17;3.43;;;;;;;14.97;79.63;101329.91;4999146;28;20173;-74
2021/06/10 03:52:44;;;;;;;7.77;4.80;;;;;;;14.74;80.64;101327.78;4999141;28;20208;-75
2021/06/10 03:55:10;;;;;;;9.87;4.53;;;;;;;14.55;81.13;101328.94;4983282;28;20168;-75
2021/06/10 03:57:36;;;;;;;5.93;4.67;;;;;;;14.42;82.07;101335.13;5016009;28;20176;-74
2021/06/10 04:00:04;;;;;;;8.73;4.70;;;;;;;14.53;81.99;101333.56;4982414;28;20284;-74
2021/06/10 04:02:29;;;;;;;7.07;4.20;;;;;;;14.66;81.31;101334.50;4999258;28;20192;-74
2021/06/10 04:04:55;;;;;;;4.43;4.03;;;;;;;14.82;80.31;101339.78;5024518;28;20180;-73
2021/06/10 04:07:21;;;;;;;5.00;4.20;;;;;;;14.91;80.27;101339.22;4993095;28;20197;-73
2021/06/10 04:09:46;;;;;;;5.70;4.50;;;;;;;14.95;80.42;101338.06;4994107;28;20180;-74
2021/06/10 04:12:12;;;;;;;6.63;4.80;;;;;;;15.02;80.25;101336.72;5001408;28;20228;-73
2021/06/10 04:14:37;;;;;;;7.77;4.93;;;;;;;15.02;80.16;101336.72;4982528;28;20212;-75
2021/06/10 04:17:02;;;;;;;5.90;4.53;;;;;;;15.10;79.45;101325.47;5015955;28;20172;-74
2021/06/10 04:19:28;;;;;;;7.13;4.17;;;;;;;15.20;79.95;101329.28;4981970;28;20177;-74
2021/06/10 04:21:53;;;;;;;12.67;4.87;;;;;;;15.18;79.72;101341.09;4982264;28;20271;-75
2021/06/10 04:24:18;;;;;;;8.57;4.90;;;;;;;15.18;80.04;101335.72;4998476;28;20177;-74
2021/06/10 04:26:43;;;;;;;6.47;4.30;;;;;;;15.35;78.81;101340.03;4981718;28;20193;-74
2021/06/10 04:29:09;;;;;;;5.33;3.57;;;;;;;15.43;78.75;101330.50;4998294;28;20606;-74
2021/06/10 04:31:34;;;;;;;5.57;3.40;;;;;;;15.54;78.01;101327.09;4998155;28;20656;-73
2021/06/10 04:33:59;;;;;;;4.20;3.80;;;;;;;15.69;75.58;101327.97;4981689;28;20200;-74
2021/06/10 04:36:25;;;;;;;4.73;4.20;;;;;;;15.67;76.28;101330.75;4982140;28;20284;-74
2021/06/10 04:38:51;;;;;;;7.47;3.70;;;;;;;15.81;75.45;101329.84;5015413;28;20210;-74
2021/06/10 04:41:17;;;;;;;4.53;3.20;;;;;;;15.92;74.92;101333.50;4998276;28;20180;-74
2021/06/10 04:43:42;;;;;;;3.93;2.70;;;;;;;15.99;74.98;101331.31;4981554;28;20677;-73
2021/06/10 04:46:07;;;;;;;4.70;3.20;;;;;;;16.08;73.93;101335.19;4981708;28;20600;-74
2021/06/10 04:48:33;;;;;;;3.03;2.83;;;;;;;16.17;73.70;101331.88;4998374;28;20209;-73
2021/06/10 04:50:58;;;;;;;4.03;3.00;;;;;;;16.10;73.75;101336.81;4997913;28;20173;-73
2021/06/10 04:53:24;;;;;;;8.83;3.17;;;;;;;16.04;74.41;101347.16;4998029;28;20300;-73
2021/06/10 04:55:50;;;;;;;4.00;3.57;;;;;;;16.22;74.13;101345.88;4998449;28;20176;-72
2021/06/10 04:58:15;;;;;;;4.57;3.93;;;;;;;16.26;74.08;101353.63;4981336;28;20177;-73
2021/06/10 05:00:41;;;;;;;5.90;4.03;;;;;;;16.42;73.50;101356.16;4997512;28;20184;-74
2021/06/10 05:03:07;;;;;;;6.43;3.83;;;;;;;16.53;73.06;101342.78;4997304;28;20196;-73
2021/06/10 05:05:33;;;;;;;9.33;4.57;;;;;;;16.67;73.01;101352.63;4981005;28;20671;-74
2021/06/10 05:07:58;;;;;;;5.03;4.53;;;;;;;16.82;72.06;101350.72;4997304;28;20203;-73
2021/06/10 05:10:24;;;;;;;8.37;4.87;;;;;;;17.00;70.82;101349.38;5014642;28;20173;-76
2021/06/10 05:12:49;;;;;;;4.83;4.33;;;;;;;17.07;70.07;101356.06;4996940;28;20197;-67
2021/06/10 05:15:15;;;;;;;5.30;4.73;;;;;;;17.22;69.76;101340.63;5014331;28;20514;-66
2021/06/10 05:17:40;;;;;;;8.30;5.30;;;;;;;17.29;69.62;101349.97;5014174;28;20173;-67
2021/06/10 05:20:06;;;;;;;11.07;5.70;;;;;;;17.32;68.47;101349.75;5014259;28;20173;-66
2021/06/10 05:22:31;;;;;;;16.33;6.93;;;;;;;17.28;68.26;101355.50;5014008;28;20255;-67
2021/06/10 05:24:56;;;;;;;14.50;6.33;;;;;;;17.23;68.37;101350.44;4996669;28;20267;-67
2021/06/10 05:27:22;;;;;;;12.33;5.80;;;;;;;17.31;67.82;101357.97;5014362;28;20197;-67
2021/06/10 05:29:47;;;;;;;11.43;6.40;;;;;;;17.40;66.96;101352.75;4996530;28;20173;-67
2021/06/10 05:32:12;;;;;;;11.53;5.70;;;;;;;17.49;65.89;101353.94;5014195;28;20207;-66
2021/06/10 05:34:38;;;;;;;6.93;5.00;;;;;;;17.58;66.18;101352.38;5014243;28;20168;-66
2021/06/10 05:37:03;;;;;;;6.57;4.90;;;;;;;17.56;65.70;101349.81;4996778;28;20177;-66
2021/06/10 05:39:29;;;;;;;8.83;5.60;;;;;;;17.61;64.48;101354.84;5014386;28;20177;-72
2021/06/10 05:41:55;;;;;;;7.10;5.33;;;;;;;17.70;62.87;101351.50;4980663;28;20176;-75
2021/06/10 05:44:20;;;;;;;7.17;5.00;;;;;;;17.79;63.25;101345.41;4996738;28;20637;-75
2021/06/10 05:46:48;;;;;;;13.20;5.90;;;;;;;17.94;63.23;101346.97;4996735;28;20173;-73
2021/06/10 05:49:13;;;;;;;13.63;5.90;;;;;;;18.06;61.75;101345.16;5013747;28;20196;-72
2021/06/10 05:51:39;;;;;;;11.60;5.67;;;;;;;18.18;61.56;101349.63;4979070;28;20555;-71
2021/06/10 05:54:04;;;;;;;15.97;5.93;;;;;;;18.30;61.70;101358.66;4995935;28;20255;-72
2021/06/10 05:56:29;;;;;;;7.53;4.23;;;;;;;18.30;59.09;101353.25;4980043;28;20204;-72
2021/06/10 05:58:55;;;;;;;11.93;4.77;;;;;;;18.35;60.15;101354.59;4981486;28;20253;-74
2021/06/10 06:01:20;;;;;;;7.57;4.90;;;;;;;18.50;60.78;101357.94;4980586;28;20530;-73
2021/06/10 06:03:45;;;;;;;7.13;4.67;;;;;;;18.66;60.56;101355.81;4996386;28;20210;-72
2021/06/10 06:06:11;;;;;;;5.83;4.20;;;;;;;18.71;56.41;101350.06;5014163;28;20664;-72
2021/06/10 06:08:36;;;;;;;4.77;4.17;;;;;;;18.77;57.48;101354.97;4998396;28;20197;-72
2021/06/10 06:11:02;;;;;;;6.47;3.83;;;;;;;18.84;56.89;101350.78;4982520;28;20557;-72
2021/06/10 06:16:13;;;;;;;5.33;4.40;;;;;;;19.07;57.28;101358.94;5015541;28;20168;-73
2021/06/10 06:18:39;;;;;;;5.60;4.57;;;;;;;19.12;58.40;101362.13;4996269;28;20177;-72
2021/06/10 06:21:05;;;;;;;7.97;4.80;;;;;;;19.16;56.75;101366.28;4995974;28;20185;-72
2021/06/10 06:23:31;;;;;;;6.53;4.00;;;;;;;19.25;56.22;101366.41;4979733;28;20204;-73
2021/06/10 06:25:57;;;;;;;5.00;3.90;;;;;;;19.42;53.86;101367.75;4979866;28;20660;-73
2021/06/10 06:28:23;;;;;;;8.63;4.00;;;;;;;19.33;52.45;101368.53;4979469;28;20687;-73
2021/06/10 06:30:48;;;;;;;3.83;3.30;;;;;;;19.37;52.38;101372.69;4979298;28;20180;-73
2021/06/10 06:33:13;;;;;;;4.10;3.70;;;;;;;19.50;52.61;101372.53;4979595;28;20669;-73
2021/06/10 06:35:41;;;;;;;8.03;3.07;;;;;;;19.56;53.04;101366.66;4995691;28;20626;-73
2021/06/10 06:38:07;;;;;;;3.43;2.40;;;;;;;19.54;53.39;101366.78;4979938;28;20173;-72
2021/06/10 06:40:32;;;;;;;5.93;3.00;;;;;;;19.63;52.49;101368.72;4995825;28;20654;-72
2021/06/10 06:42:58;;;;;;;4.20;2.70;;;;;;;19.74;51.95;101365.16;4979292;28;20197;-72
2021/06/10 06:45:23;;;;;;;5.50;3.33;;;;;;;19.90;51.94;101364.72;4995971;28;20649;-71
2021/06/10 06:47:48;;;;;;;3.87;2.80;;;;;;;19.92;51.43;101358.19;4995583;28;20200;-72
2021/06/10 06:50:14;;;;;;;5.87;2.97;;;;;;;19.94;52.11;101358.06;4979127;28;20227;-72
2021/06/10 06:52:39;;;;;;;3.23;2.80;;;;;;;20.04;51.25;101367.13;4995478;28;20219;-72
2021/06/10 06:55:04;;;;;;;4.10;2.87;;;;;;;19.84;51.48;101367.94;5013280;28;20192;-71
2021/06/10 06:57:30;;;;;;;3.20;2.57;;;;;;;19.92;51.23;101370.88;5013422;28;20227;-73
2021/06/10 06:59:56;;;;;;;5.37;2.90;;;;;;;19.96;51.27;101365.06;5013067;28;20286;-72
2021/06/10 07:02:21;;;;;;;2.87;2.50;;;;;;;20.09;51.01;101362.19;4980309;28;20204;-72
2021/06/10 07:04:46;;;;;;;3.33;2.20;;;;;;;20.18;51.27;101366.84;4999503;28;20207;-73
2021/06/10 07:07:12;;;;;;;6.50;3.17;;;;;;;20.11;51.21;101362.94;4999543;28;20204;-72
2021/06/10 07:09:37;;;;;;;7.43;2.93;;;;;;;20.30;50.05;101368.50;4999779;28;20181;-72
2021/06/10 07:12:02;;;;;;;2.80;2.50;;;;;;;20.38;49.40;101372.38;4982973;28;20633;-72
2021/06/10 07:14:28;;;;;;;2.47;2.03;;;;;;;20.33;50.35;101372.78;4982936;28;20177;-72
2021/06/10 07:16:53;;;;;;;3.07;2.67;;;;;;;20.44;49.83;101374.59;5016832;28;20181;-72
2021/06/10 07:19:18;;;;;;;4.60;3.37;;;;;;;20.46;48.41;101372.66;4982780;28;20276;-72
2021/06/10 07:21:46;;;;;;;3.97;3.57;;;;;;;20.47;48.71;101374.38;4999055;28;20192;-72
2021/06/10 07:24:11;;;;;;;6.00;3.40;;;;;;;20.24;49.68;101374.44;4982670;28;20247;-72
2021/06/10 07:26:37;;;;;;;5.37;2.33;;;;;;;20.40;49.28;101370.44;4999479;28;20212;-72
2021/06/10 07:29:02;;;;;;;4.20;3.20;;;;;;;20.54;47.90;101370.13;4982415;28;20204;-71
2021/06/10 07:31:27;;;;;;;4.83;3.67;;;;;;;20.52;49.09;101372.97;4982594;28;20177;-72
2021/06/10 07:33:53;;;;;;;3.63;2.50;;;;;;;20.70;48.99;101375.94;4999005;28;20204;-72
2021/06/10 07:36:18;;;;;;;13.13;4.87;;;;;;;20.66;49.08;101379.91;5016518;28;20179;-72
2021/06/10 07:38:44;;;;;;;4.23;2.57;;;;;;;20.87;47.57;101377.19;4998853;28;20181;-72
2021/06/10 07:41:09;;;;;;;4.57;3.30;;;;;;;20.95;48.32;101380.09;5016041;28;20183;-72
2021/06/10 07:43:34;;;;;;;8.87;3.40;;;;;;;20.88;47.06;101385.19;4982099;28;20203;-72
2021/06/10 07:46:01;;;;;;;4.27;3.07;;;;;;;20.91;46.97;101387.63;4981894;28;20192;-71
2021/06/10 07:48:29;;;;;;;4.53;3.30;;;;;;;20.83;46.72;101383.88;4981924;28;20288;-73
2021/06/10 07:50:54;;;;;;;3.90;3.10;;;;;;;20.91;47.15;101386.78;4998613;28;20199;-71
2021/06/10 07:53:20;;;;;;;3.27;2.70;;;;;;;20.96;47.79;101389.09;5017274;28;20222;-71
2021/06/10 07:55:46;;;;;;;5.63;3.60;;;;;;;20.87;48.09;101391.63;4998508;28;20193;-71
2021/06/10 07:58:11;;;;;;;2.57;2.30;;;;;;;21.06;48.40;101395.41;4998525;28;20541;-73
2021/06/10 08:00:36;;;;;;;5.43;2.57;;;;;;;21.20;47.66;101400.50;4981980;28;20180;-71
2021/06/10 08:03:01;;;;;;;3.33;2.77;;;;;;;21.29;45.75;101404.28;4998339;28;20204;-72
2021/06/10 08:05:27;;;;;;;5.47;2.53;;;;;;;21.27;46.14;101404.41;4998091;28;20247;-72
2021/06/10 08:07:54;;;;;;;3.87;2.60;;;;;;;21.34;47.00;101397.44;4981822;28;20676;-72
2021/06/10 08:10:20;;;;;;;4.83;3.23;;;;;;;21.14;45.73;101403.72;4981986;28;20181;-73
2021/06/10 08:12:46;;;;;;;4.10;2.60;;;;;;;21.37;46.14;101397.16;5015645;28;20196;-72
2021/06/10 08:15:11;;;;;;;2.57;2.37;;;;;;;21.48;44.54;101402.47;4997630;28;20180;-73
2021/06/10 08:17:37;;;;;;;3.53;2.63;;;;;;;21.63;44.90;101399.41;4998510;28;20732;-73
2021/06/10 08:20:04;;;;;;;3.70;2.40;;;;;;;21.77;44.93;101399.84;5016376;28;20177;-73
2021/06/10 08:22:30;;;;;;;4.27;3.07;;;;;;;21.85;43.68;101391.84;4998559;28;20573;-72
2021/06/10 08:24:55;;;;;;;3.87;2.10;;;;;;;21.84;45.22;101400.13;4982432;28;20191;-73
2021/06/10 08:27:20;;;;;;;4.10;2.27;;;;;;;21.87;45.18;101396.28;4998637;28;20208;-73
2021/06/10 08:29:46;;;;;;;5.07;2.70;;;;;;;21.84;44.29;101408.28;4998496;28;20173;-72
2021/06/10 08:32:11;;;;;;;9.53;6.80;;;;;;;21.84;43.57;101411.88;4981906;28;20207;-72
2021/06/10 08:34:36;;;;;;;4.37;2.70;;;;;;;21.87;43.95;101402.56;5016208;28;20699;-72
2021/06/10 08:37:02;;;;;;;8.03;4.30;;;;;;;21.87;43.79;101399.84;4998570;28;20215;-72
2021/06/10 08:39:28;;;;;;;3.50;2.57;;;;;;;21.76;43.43;101406.28;4998378;28;20225;-73
2021/06/10 08:41:53;;;;;;;2.03;1.73;;;;;;;21.69;41.29;101402.41;4981971;28;20177;-73
2021/06/10 08:44:19;;;;;;;3.10;2.60;;;;;;;21.64;43.61;101396.53;4998045;28;20177;-73
2021/06/10 08:46:47;;;;;;;2.43;2.23;;;;;;;21.68;42.44;101399.84;4982040;28;20189;-73
2021/06/10 08:49:14;;;;;;;2.20;2.00;;;;;;;21.79;42.26;101397.00;4982060;28;20212;-73
2021/06/10 08:51:39;;;;;;;2.73;1.80;;;;;;;21.69;43.04;101396.97;4981783;28;20263;-73
2021/06/10 08:54:05;;;;;;;2.63;2.10;;;;;;;21.83;43.92;101399.28;4980871;28;20326;-73
2021/06/10 08:56:32;;;;;;;3.80;2.00;;;;;;;22.09;44.54;101396.06;4986668;28;20187;-74
2021/06/10 08:58:58;;;;;;;2.83;2.10;;;;;;;22.11;44.55;101394.06;4992769;28;20169;-73
2021/06/10 09:01:23;;;;;;;5.20;2.40;;;;;;;21.95;43.72;101391.88;4992465;28;20200;-74
2021/06/10 09:03:49;;;;;;;3.87;2.70;;;;;;;22.07;43.31;101398.06;5004521;28;20219;-73
2021/06/10 09:06:17;;;;;;;2.57;1.97;;;;;;;22.02;42.53;101398.47;5002353;28;20217;-74
2021/06/10 09:08:44;;;;;;;3.77;2.87;;;;;;;22.35;42.06;101394.50;5019161;28;20197;-74
2021/06/10 09:11:13;;;;;;;2.83;2.00;;;;;;;22.39;41.60;101395.06;5007375;28;20180;-73
2021/06/10 09:13:48;;;;;;;2.43;2.20;;;;;;;22.52;41.55;101384.75;5024308;28;20199;-74
2021/06/10 09:16:26;;;;;;;2.03;1.60;;;;;;;22.63;41.49;101392.75;5009011;28;20588;-73
2021/06/10 09:19:02;;;;;;;3.90;2.07;;;;;;;22.48;39.37;101393.34;4995459;28;20180;-74
2021/06/10 09:21:39;;;;;;;6.87;3.30;;;;;;;22.63;39.67;101386.44;5008306;28;20167;-72
2021/06/10 09:24:27;;;;;;;4.57;2.00;;;;;;;22.70;39.84;101388.47;5002062;28;20193;-71
2021/06/10 09:27:13;;;;;;;2.47;1.90;;;;;;;22.89;39.63;101387.56;4979931;28;20173;-72
2021/06/10 09:29:50;;;;;;;4.80;1.77;;;;;;;22.65;40.00;101388.00;4997404;28;20161;-72
2021/06/10 09:32:25;;;;;;;3.10;2.20;;;;;;;22.79;39.85;101394.88;4997182;28;20704;-72
2021/06/10 09:34:59;;;;;;;2.70;1.90;;;;;;;22.95;39.76;101394.28;4997352;28;20287;-73
2021/06/10 09:37:33;;;;;;;2.13;1.70;;;;;;;22.79;37.96;101392.16;5015594;28;20157;-72
2021/06/10 09:40:00;;;;;;;2.57;1.60;;;;;;;23.13;36.80;101389.81;4997611;28;20603;-73
2021/06/10 09:42:30;;;;;;;1.93;1.50;;;;;;;23.25;36.98;101398.63;4997134;28;20188;-73
2021/06/10 09:44:58;;;;;;;2.67;1.70;;;;;;;23.28;36.21;101382.84;4981378;28;20196;-73
2021/06/10 09:47:28;;;;;;;3.27;2.27;;;;;;;23.38;37.21;101389.09;4997577;28;20204;-73
2021/06/10 09:49:54;;;;;;;3.77;1.83;;;;;;;23.34;36.72;101395.84;4999572;28;20172;-73
2021/06/10 09:52:20;;;;;;;2.60;2.30;;;;;;;23.48;36.37;101393.66;4984433;28;20212;-74
2021/06/10 09:54:50;;;;;;;4.67;2.90;;;;;;;23.53;35.93;101392.19;5018314;28;20153;-73
2021/06/10 09:57:16;;;;;;;2.33;1.90;;;;;;;23.40;36.47;101389.81;4999299;28;20227;-74
2021/06/10 09:59:52;;;;;;;1.53;1.40;;;;;;;23.17;37.08;101395.81;4998407;28;20173;-74
2021/06/10 10:02:27;;;;;;;2.43;2.00;;;;;;;23.47;36.00;101389.22;4999400;28;20216;-73
2021/06/10 10:05:06;;;;;;;2.10;1.60;;;;;;;23.52;36.52;101389.63;4999161;28;20173;-74
2021/06/10 10:07:36;;;;;;;1.70;1.57;;;;;;;23.75;36.09;101387.34;4997291;28;20185;-74
2021/06/10 10:10:05;;;;;;;1.80;1.40;;;;;;;23.83;36.07;101382.03;4981690;28;20180;-73
2021/06/10 10:12:31;;;;;;;3.23;2.30;;;;;;;23.98;35.85;101378.59;4996772;28;20196;-73
2021/06/10 10:14:57;;;;;;;5.57;4.00;;;;;;;23.99;35.01;101380.31;5003401;28;20179;-74
2021/06/10 10:17:23;;;;;;;3.47;3.17;;;;;;;24.11;34.84;101383.66;4996312;28;20162;-73
2021/06/10 10:19:49;;;;;;;2.20;1.60;;;;;;;24.06;34.43;101385.13;4997153;28;20252;-74
2021/06/10 10:22:14;;;;;;;3.57;1.83;;;;;;;24.08;34.98;101380.38;4980548;28;20197;-74
2021/06/10 10:24:41;;;;;;;3.03;2.13;;;;;;;24.07;35.67;101381.41;4997111;28;20180;-73
2021/06/10 10:27:10;;;;;;;4.53;2.93;;;;;;;24.29;35.87;101372.78;4996598;28;20173;-73
2021/06/10 10:29:37;;;;;;;3.70;1.70;;;;;;;24.37;35.18;101375.56;4981101;28;20260;-74
2021/06/10 10:32:03;;;;;;;10.10;4.87;;;;;;;24.54;34.70;101369.25;4996084;28;20177;-74
2021/06/10 10:34:30;;;;;;;1.37;1.13;;;;;;;24.30;35.01;101372.63;4996143;28;20181;-74
2021/06/10 10:36:57;;;;;;;4.57;1.80;;;;;;;24.54;34.52;101376.59;4979687;28;20180;-72
2021/06/10 10:39:31;;;;;;;1.47;1.30;;;;;;;24.64;34.60;101371.88;4996199;28;20177;-73
2021/06/10 10:41:59;;;;;;;2.33;1.53;;;;;;;24.82;34.96;101375.41;5013836;28;20524;-72
2021/06/10 10:44:27;;;;;;;3.27;1.50;;;;;;;25.11;34.00;101372.38;4996660;28;20641;-73
2021/06/10 10:47:10;;;;;;;3.23;1.33;;;;;;;25.09;33.90;101371.69;4979730;28;20172;-73
2021/06/10 10:49:47;;;;;;;1.80;1.40;;;;;;;25.19;34.09;101374.28;4996540;28;20180;-73
2021/06/10 10:52:16;;;;;;;3.20;1.80;;;;;;;25.31;34.03;101366.69;4997399;28;20211;-74
2021/06/10 10:54:46;;;;;;;1.90;1.40;;;;;;;25.43;33.24;101365.34;5014417;28;20511;-73
2021/06/10 10:57:30;;;;;;;2.73;1.80;;;;;;;25.76;32.31;101363.63;4997942;28;20575;-73
2021/06/10 10:59:56;;;;;;;3.83;1.83;;;;;;;25.70;32.77;101359.69;4996277;28;20177;-75
2021/06/10 11:02:21;;;;;;;3.97;1.40;;;;;;;26.59;31.42;101363.53;4981419;28;20561;-74
2021/06/10 11:04:55;;;;;;;4.87;1.50;;;;;;;27.58;29.06;101360.38;4979696;28;20180;-73
2021/06/10 11:07:35;;;;;;;2.20;1.17;;;;;;;27.88;28.56;101355.94;4996026;28;20223;-72
2021/06/10 11:10:04;;;;;;;1.20;1.10;;;;;;;29.31;27.73;101360.47;5014069;28;20176;-73
2021/06/10 11:12:47;;;;;;;2.55;0.90;;;;;;;31.38;23.75;101369.50;4996219;28;20189;-73
2021/06/10 11:15:15;;;;;;;2.63;1.10;;;;;;;32.37;22.68;101357.09;5013607;28;20211;-73
2021/06/10 11:17:44;;;;;;;2.28;1.10;;;;;;;33.88;21.47;101355.94;4995464;28;20596;-73
2021/06/10 11:20:13;;;;;;;2.95;1.40;;;;;;;33.60;21.79;101359.03;4979316;28;20179;-73
2021/06/10 11:22:46;;;;;;;1.75;0.90;;;;;;;33.71;21.22;101361.09;4995835;28;20223;-74
2021/06/10 11:25:15;;;;;;;3.10;0.98;;;;;;;33.53;21.46;101355.44;4979283;28;20649;-73
2021/06/10 11:27:47;;;;;;;1.58;1.05;;;;;;;33.61;21.22;101352.41;4995544;28;20204;-72